This is the latest recevied weather packets stored in our database for station/object EPGD. If no packets are shown the sender has not sent any weather packets the latest 10 day(s).
| Time | Temp. | Humidity | Pressure | Rain* | Wind** | Luminosity | Snow |
|---|---|---|---|---|---|---|---|
| 1787882704 | 11.67° C | 93% | 1022 hPa | - | - | - | - |
| 1787880904 | 11.67° C | 93% | 1022 hPa | - | - | - | - |
| 1787879104 | 13.89° C | 82% | 1022 hPa | - | - | - | - |
| 1787877304 | 13.89° C | 82% | 1022 hPa | - | - | - | - |
| 1787875504 | 13.89° C | 82% | 1022 hPa | - | - | - | - |
| 1787873704 | 15° C | 76% | 1023 hPa | - | - | - | - |
| 1787871904 | 15° C | 76% | 1023 hPa | - | - | - | - |
| 1787870104 | 15° C | 76% | 1023 hPa | - | - | - | - |
| 1787868311 | 13.89° C | 82% | 1023 hPa | - | - | - | - |
| 1787866509 | 13.89° C | 82% | 1023 hPa | - | - | - | - |
| 1787864709 | 15° C | 76% | 1023 hPa | - | - | - | - |
| 1787862904 | 15° C | 76% | 1023 hPa | - | - | - | - |
| 1787861106 | 15.56° C | 72% | 1023 hPa | - | - | - | - |
| 1787859306 | 16.67° C | 72% | 1023 hPa | - | - | - | - |
| 1787857507 | 15.56° C | 82% | 1023 hPa | - | - | - | - |
| 1787855706 | 15.56° C | 87% | 1023 hPa | - | - | - | - |
| 1787853904 | 16.67° C | 82% | 1023 hPa | - | - | - | - |
| 1787852103 | 17.78° C | 77% | 1023 hPa | - | - | - | - |
| 1787850304 | 18.89° C | 72% | 1023 hPa | - | - | - | - |
| 1787848504 | 20° C | 68% | 1023 hPa | - | - | - | - |
| 1787846704 | 20° C | 68% | 1023 hPa | - | - | - | - |
| 1787844911 | 20° C | 68% | 1023 hPa | - | - | - | - |
| 1787843104 | 20° C | 72% | 1023 hPa | - | - | - | - |
| 1787841304 | 20° C | 68% | 1023 hPa | - | - | - | - |
| 1787839504 | 20° C | 68% | 1023 hPa | - | - | - | - |
* Rain since midnight (hover to see other rain measurements)
** Current wind speed in m/s (hover to see current wind gust speed)